createdAt,value
2018-07-30T00:00:51.878Z,52.56
2018-07-30T00:01:51.726Z,52.22
2018-07-30T00:02:51.878Z,52.51
2018-07-30T00:03:51.708Z,52.6
2018-07-30T00:04:51.726Z,52.61
2018-07-30T00:05:51.708Z,53.11
2018-07-30T00:06:51.730Z,52.91
2018-07-30T00:07:51.721Z,52.92
2018-07-30T00:08:51.727Z,53.2
2018-07-30T00:09:51.728Z,53.29
2018-07-30T00:10:51.742Z,53.71
2018-07-30T00:11:51.730Z,53.9
2018-07-30T00:12:52.188Z,53.77
2018-07-30T00:13:51.860Z,54.04
2018-07-30T00:14:51.750Z,53.87
2018-07-30T00:15:51.881Z,53.83
2018-07-30T00:16:51.753Z,54.16
2018-07-30T00:17:51.764Z,53.62
2018-07-30T00:18:51.756Z,53.63
2018-07-30T00:19:52.106Z,53.79
2018-07-30T00:20:52.229Z,54.17
2018-07-30T00:21:51.818Z,54.48
2018-07-30T00:22:51.729Z,54.18
2018-07-30T00:23:51.739Z,53.55
2018-07-30T00:24:51.909Z,54.54
2018-07-30T00:25:51.874Z,54.16
2018-07-30T00:26:51.915Z,54.18
2018-07-30T00:27:52.161Z,54.17
2018-07-30T00:28:51.804Z,54.35
2018-07-30T00:29:51.985Z,54.33
2018-07-30T00:30:51.790Z,54.96
2018-07-30T00:31:51.808Z,54.67
2018-07-30T00:32:51.928Z,54.09
2018-07-30T00:33:51.753Z,55.25
2018-07-30T00:34:52.103Z,54.57
2018-07-30T00:35:52.419Z,54.26
2018-07-30T00:36:51.992Z,54.32
2018-07-30T00:37:51.772Z,54.57
2018-07-30T00:38:51.768Z,54.44
2018-07-30T00:39:51.772Z,54.51
2018-07-30T00:40:51.812Z,54.64
2018-07-30T00:41:51.751Z,54.73
2018-07-30T00:42:51.792Z,54.91
2018-07-30T00:43:51.781Z,54.65
2018-07-30T00:44:51.868Z,55.67
2018-07-30T00:45:52.397Z,54.86
2018-07-30T00:46:51.864Z,54.87
2018-07-30T00:47:51.843Z,54.96
2018-07-30T00:48:51.901Z,55.04
2018-07-30T00:49:51.790Z,55.37
2018-07-30T00:50:51.779Z,54.8
2018-07-30T00:51:51.899Z,54.96
2018-07-30T00:52:51.945Z,55.16
2018-07-30T00:53:52.004Z,55.48
2018-07-30T00:54:51.857Z,55.49
2018-07-30T00:55:51.955Z,55.44
2018-07-30T00:56:51.959Z,54.96
2018-07-30T00:57:52.055Z,54.93
2018-07-30T00:58:51.895Z,54.85
2018-07-30T00:59:51.865Z,55.22
2018-07-30T01:00:51.924Z,55.97
2018-07-30T01:01:51.864Z,55.99
2018-07-30T01:02:51.860Z,56
2018-07-30T01:03:51.933Z,55.36
2018-07-30T01:04:51.976Z,55.79
2018-07-30T01:05:52.314Z,55.35
2018-07-30T01:06:51.903Z,55.77
2018-07-30T01:07:51.903Z,56.51
2018-07-30T01:08:52.014Z,56.79
2018-07-30T01:09:51.887Z,56.24
2018-07-30T01:10:51.884Z,56.89
2018-07-30T01:11:51.846Z,56.35
2018-07-30T01:12:51.848Z,56.21
2018-07-30T01:13:51.837Z,56.75
2018-07-30T01:14:51.947Z,56.59
2018-07-30T01:15:51.802Z,55.98
2018-07-30T01:16:51.840Z,56.5
2018-07-30T01:17:51.818Z,56.1
2018-07-30T01:18:51.821Z,56.47
2018-07-30T01:19:51.897Z,56.94
2018-07-30T01:20:51.811Z,56.17
2018-07-30T01:21:52.077Z,56.14
2018-07-30T01:22:51.831Z,55.98
2018-07-30T01:23:51.843Z,56.26
2018-07-30T01:24:51.833Z,56.57
2018-07-30T01:25:51.880Z,56.62
2018-07-30T01:26:51.926Z,56.04
2018-07-30T01:27:51.865Z,56.1
2018-07-30T01:28:51.849Z,56.71
2018-07-30T01:29:51.838Z,57.1
2018-07-30T01:30:51.852Z,57.13
2018-07-30T01:31:51.888Z,57.5
2018-07-30T01:32:51.835Z,57.47
2018-07-30T01:33:51.883Z,57.48
2018-07-30T01:34:51.906Z,57.55
2018-07-30T01:35:51.827Z,57.37
2018-07-30T01:36:52.042Z,57.51
2018-07-30T01:37:51.939Z,57.25
2018-07-30T01:38:51.982Z,57.07
2018-07-30T01:39:51.839Z,58.23
2018-07-30T01:40:51.844Z,57.88
2018-07-30T01:41:52.007Z,57.62
2018-07-30T01:42:51.837Z,57.23
2018-07-30T01:43:51.900Z,57.29
2018-07-30T01:44:52.019Z,57.22
2018-07-30T01:45:51.896Z,57.09
2018-07-30T01:46:51.998Z,57.41
2018-07-30T01:47:51.890Z,57.18
2018-07-30T01:48:51.842Z,56.95
2018-07-30T01:49:51.852Z,56.75
2018-07-30T01:50:51.900Z,57.02
2018-07-30T01:51:51.851Z,56.92
2018-07-30T01:52:51.944Z,56.88
2018-07-30T01:53:51.993Z,56.92
2018-07-30T01:54:51.889Z,56.92
2018-07-30T01:55:51.914Z,57.23
2018-07-30T01:56:51.973Z,57.41
2018-07-30T01:57:52.253Z,57.04
2018-07-30T01:58:52.119Z,57.42
2018-07-30T01:59:51.865Z,57.43
2018-07-30T02:00:51.872Z,56.87
2018-07-30T02:01:51.916Z,57.18
2018-07-30T02:02:51.936Z,57.07
2018-07-30T02:03:51.910Z,57.49
2018-07-30T02:04:52.065Z,57.68
2018-07-30T02:05:51.888Z,57.45
2018-07-30T02:06:51.871Z,57.13
2018-07-30T02:07:51.919Z,56.85
2018-07-30T02:08:51.885Z,56.86
2018-07-30T02:09:51.926Z,57.4
2018-07-30T02:10:51.890Z,57.81
2018-07-30T02:11:51.894Z,57.73
2018-07-30T02:12:51.940Z,57.42
2018-07-30T02:13:51.912Z,57.74
2018-07-30T02:14:51.878Z,57.82
2018-07-30T02:15:51.960Z,57.4
2018-07-30T02:16:52.087Z,57.67
2018-07-30T02:17:51.893Z,57.44
2018-07-30T02:18:51.943Z,57.79
2018-07-30T02:19:51.898Z,58.03
2018-07-30T02:20:51.903Z,57.98
2018-07-30T02:21:51.924Z,58.08
2018-07-30T02:22:51.943Z,57.94
2018-07-30T02:23:52.062Z,57.57
2018-07-30T02:24:51.924Z,57.69
2018-07-30T02:25:52.101Z,57.95
2018-07-30T02:26:51.902Z,57.58
2018-07-30T02:27:51.939Z,58.49
2018-07-30T02:28:51.911Z,58.6
2018-07-30T02:29:51.911Z,58.16
2018-07-30T02:30:51.910Z,57.89
2018-07-30T02:31:51.912Z,58.96
2018-07-30T02:32:51.907Z,59.42
2018-07-30T02:33:51.907Z,60.01
2018-07-30T02:34:51.895Z,59.94
2018-07-30T02:35:51.914Z,59.36
2018-07-30T02:36:51.903Z,59.4
2018-07-30T02:37:51.914Z,58.6
2018-07-30T02:38:51.932Z,58.77
2018-07-30T02:39:51.929Z,59.45
2018-07-30T02:40:51.921Z,59.66
2018-07-30T02:41:51.904Z,59.37
2018-07-30T02:42:51.917Z,59.31
2018-07-30T02:43:51.922Z,59.63
2018-07-30T02:44:51.925Z,59.61
2018-07-30T02:45:51.927Z,60.04
2018-07-30T02:46:51.932Z,59.36
2018-07-30T02:47:51.970Z,60.61
2018-07-30T02:48:51.941Z,60.14
2018-07-30T02:49:51.914Z,59.95
2018-07-30T02:50:51.976Z,59.7
2018-07-30T02:51:51.947Z,59.7
2018-07-30T02:52:51.968Z,59.82
2018-07-30T02:53:51.938Z,59.93
2018-07-30T02:54:51.941Z,59.73
2018-07-30T02:55:51.936Z,59.99
2018-07-30T02:56:51.963Z,60.05
2018-07-30T02:57:51.952Z,60.02
2018-07-30T02:58:51.966Z,60.09
2018-07-30T02:59:51.956Z,60.19
2018-07-30T03:00:51.942Z,59.54
2018-07-30T03:01:51.944Z,60.13
2018-07-30T03:02:51.944Z,60.31
2018-07-30T03:03:51.947Z,59.94
2018-07-30T03:04:51.969Z,60.01
2018-07-30T03:05:52.013Z,60.29
2018-07-30T03:06:51.963Z,60.73
2018-07-30T03:07:52.139Z,60.88
2018-07-30T03:08:51.968Z,60.14
2018-07-30T03:09:51.967Z,60.52
2018-07-30T03:10:52.065Z,59.78
2018-07-30T03:11:51.959Z,60.24
2018-07-30T03:12:51.961Z,60.3
2018-07-30T03:13:52.109Z,60.6
2018-07-30T03:14:52.118Z,60.48
2018-07-30T03:15:51.987Z,60.43
2018-07-30T03:16:51.961Z,60.13
2018-07-30T03:17:52.053Z,61.18
2018-07-30T03:18:51.962Z,61.22
2018-07-30T03:19:51.972Z,61.09
2018-07-30T03:20:52.049Z,61.09
2018-07-30T03:21:51.963Z,60.94
2018-07-30T03:22:51.957Z,60.83
2018-07-30T03:23:52.114Z,60.98
2018-07-30T03:24:52.077Z,60.87
2018-07-30T03:25:52.192Z,61.1
2018-07-30T03:26:52.034Z,61.35
2018-07-30T03:27:52.027Z,60.8
2018-07-30T03:28:52.530Z,61.21
2018-07-30T03:29:51.963Z,61.07
2018-07-30T03:30:51.979Z,61.71
2018-07-30T03:31:52.026Z,61.38
2018-07-30T03:32:52.152Z,61.98
2018-07-30T03:33:51.979Z,60.96
2018-07-30T03:34:52.056Z,60.93
2018-07-30T03:35:51.992Z,61.72
2018-07-30T03:36:52.149Z,62.03
2018-07-30T03:37:52.066Z,61.67
2018-07-30T03:38:52.404Z,61.69
2018-07-30T03:39:52.031Z,62.01
2018-07-30T03:40:51.981Z,62.14
2018-07-30T03:41:51.988Z,62.03
2018-07-30T03:42:52.072Z,62.16
2018-07-30T03:43:52.009Z,62.04
2018-07-30T03:44:52.006Z,62.86
2018-07-30T03:45:51.983Z,62.42
2018-07-30T03:46:52.010Z,63.15
2018-07-30T03:47:52.035Z,62.46
2018-07-30T03:48:52.054Z,62.6
2018-07-30T03:49:52.034Z,63.11
2018-07-30T03:50:52.463Z,62.72
2018-07-30T03:51:52.008Z,62.18
2018-07-30T03:52:52.006Z,62.2
2018-07-30T03:53:51.993Z,61.98
2018-07-30T03:54:52.010Z,62.19
2018-07-30T03:55:51.992Z,62.18
2018-07-30T03:56:51.998Z,62.41
2018-07-30T03:57:52.048Z,61.93
2018-07-30T03:58:52.012Z,62.05
2018-07-30T03:59:52.048Z,62.26
2018-07-30T04:00:52.533Z,61.67
2018-07-30T04:01:52.032Z,61.85
2018-07-30T04:02:52.030Z,62.21
2018-07-30T04:03:52.044Z,62.23
2018-07-30T04:04:52.016Z,62.22
2018-07-30T04:05:52.056Z,62.03
2018-07-30T04:06:52.032Z,61.73
2018-07-30T04:07:52.128Z,61.26
2018-07-30T04:08:52.120Z,61.33
2018-07-30T04:09:52.242Z,61.14
2018-07-30T04:10:52.540Z,61.12
2018-07-30T04:11:52.037Z,61.39
2018-07-30T04:12:52.082Z,61.56
2018-07-30T04:13:52.047Z,61.14
2018-07-30T04:14:52.056Z,61.47
2018-07-30T04:15:52.055Z,61.17
2018-07-30T04:16:52.440Z,61.2
2018-07-30T04:17:52.027Z,61.14
2018-07-30T04:18:52.109Z,60.91
2018-07-30T04:19:52.054Z,61.06
2018-07-30T04:20:52.229Z,61.75
2018-07-30T04:21:52.026Z,61.09
2018-07-30T04:22:52.048Z,61.31
2018-07-30T04:23:52.143Z,61.34
2018-07-30T04:24:52.048Z,61.55
2018-07-30T04:25:52.043Z,60.9
2018-07-30T04:26:52.038Z,61.02
2018-07-30T04:27:52.097Z,61.43
2018-07-30T04:28:52.048Z,60.9
2018-07-30T04:29:52.399Z,60.84
2018-07-30T04:30:52.318Z,60.89
2018-07-30T04:31:52.099Z,60.84
2018-07-30T04:32:52.089Z,61.04
2018-07-30T04:33:52.184Z,60.88
2018-07-30T04:34:52.206Z,61.68
2018-07-30T04:35:52.099Z,61.73
2018-07-30T04:36:52.054Z,61.69
2018-07-30T04:37:52.459Z,62.2
2018-07-30T04:38:52.159Z,61.56
2018-07-30T04:39:52.180Z,61.67
2018-07-30T04:40:52.171Z,61.79
2018-07-30T04:41:52.160Z,62.29
2018-07-30T04:42:52.120Z,61.93
2018-07-30T04:43:52.206Z,61.8
2018-07-30T04:44:52.070Z,61.97
2018-07-30T04:45:52.102Z,61.63
2018-07-30T04:46:52.054Z,62.04
2018-07-30T04:47:52.303Z,61.44
2018-07-30T04:48:52.198Z,61.73
2018-07-30T04:49:52.543Z,61.86
2018-07-30T04:50:52.242Z,61.76
2018-07-30T04:51:52.207Z,61.42
2018-07-30T04:52:52.071Z,61.4
2018-07-30T04:53:52.073Z,61.71
2018-07-30T04:54:52.125Z,61.71
2018-07-30T04:55:52.278Z,62.06
2018-07-30T04:56:52.109Z,61.73
2018-07-30T04:57:52.166Z,62.15
2018-07-30T04:58:52.190Z,62.05
2018-07-30T04:59:52.073Z,62.56
2018-07-30T05:00:52.338Z,62.29
2018-07-30T05:01:52.120Z,62.3
2018-07-30T05:02:52.058Z,61.76
2018-07-30T05:03:52.131Z,62.26
2018-07-30T05:04:52.092Z,62.22
2018-07-30T05:05:52.073Z,62.1
2018-07-30T05:06:52.078Z,61.87
2018-07-30T05:07:52.082Z,61.78
2018-07-30T05:08:52.096Z,62.39
2018-07-30T05:09:52.110Z,62.21
2018-07-30T05:10:52.089Z,62.96
2018-07-30T05:11:52.101Z,62.35
2018-07-30T05:12:52.123Z,62.14
2018-07-30T05:13:52.111Z,62.23
2018-07-30T05:14:52.159Z,62.21
2018-07-30T05:15:52.143Z,62.07
2018-07-30T05:16:52.300Z,62.42
2018-07-30T05:17:52.193Z,62.04
2018-07-30T05:18:52.133Z,62.14
2018-07-30T05:19:52.090Z,61.92
2018-07-30T05:20:52.122Z,61.8
2018-07-30T05:21:52.299Z,61.85
2018-07-30T05:22:52.183Z,62.22
2018-07-30T05:23:52.201Z,62.16
2018-07-30T05:24:52.150Z,63.09
2018-07-30T05:25:52.119Z,62.42
2018-07-30T05:26:52.163Z,62.92
2018-07-30T05:27:52.109Z,62.34
2018-07-30T05:28:52.105Z,62.19
2018-07-30T05:29:52.244Z,62.56
2018-07-30T05:30:52.129Z,62.26
2018-07-30T05:31:52.183Z,62.02
2018-07-30T05:32:52.101Z,62.56
2018-07-30T05:33:52.260Z,62.09
2018-07-30T05:34:52.169Z,62.01
2018-07-30T05:35:52.863Z,62.44
2018-07-30T05:36:56.064Z,62.21
2018-07-30T05:37:52.145Z,61.86
2018-07-30T05:38:52.182Z,61.65
2018-07-30T05:39:52.284Z,61.64
2018-07-30T05:40:52.154Z,62.3
2018-07-30T05:41:52.270Z,61.83
2018-07-30T05:42:52.280Z,62.37
2018-07-30T05:43:52.173Z,61.95
2018-07-30T05:44:52.300Z,61.61
2018-07-30T05:45:52.608Z,61.4
2018-07-30T05:46:52.175Z,62.03
2018-07-30T05:47:52.149Z,61.84
2018-07-30T05:48:52.132Z,62.12
2018-07-30T05:49:52.298Z,62.31
2018-07-30T05:50:52.142Z,61.82
2018-07-30T05:51:52.347Z,61.61
2018-07-30T05:52:52.140Z,61.37
2018-07-30T05:53:52.169Z,61.18
2018-07-30T05:54:52.202Z,61.87
2018-07-30T05:55:52.600Z,61.41
2018-07-30T05:56:52.361Z,61.31
2018-07-30T05:57:52.208Z,61.2
2018-07-30T05:58:52.231Z,60.9
2018-07-30T05:59:52.206Z,61.06
2018-07-30T06:00:52.276Z,61.21
2018-07-30T06:01:52.209Z,61.27
2018-07-30T06:02:52.157Z,60.88
2018-07-30T06:03:52.160Z,60.85
2018-07-30T06:04:52.178Z,60.68
2018-07-30T06:05:52.674Z,60.66
2018-07-30T06:06:52.316Z,60.85
2018-07-30T06:07:52.192Z,60.85
2018-07-30T06:08:52.350Z,60.81
2018-07-30T06:09:52.173Z,60.62
2018-07-30T06:10:52.269Z,60.26
2018-07-30T06:11:52.317Z,60.41
2018-07-30T06:12:52.372Z,60.27
2018-07-30T06:13:52.432Z,60.13
2018-07-30T06:14:52.176Z,59.95
2018-07-30T06:15:52.664Z,60.5
2018-07-30T06:16:52.195Z,60.55
2018-07-30T06:17:52.197Z,59.97
2018-07-30T06:18:52.230Z,60.29
2018-07-30T06:19:52.205Z,59.97
2018-07-30T06:20:52.418Z,59.78
2018-07-30T06:21:52.215Z,59.57
2018-07-30T06:22:52.186Z,59.77
2018-07-30T06:23:52.210Z,59.78
2018-07-30T06:24:52.185Z,59.66
2018-07-30T06:25:52.176Z,59.66
2018-07-30T06:26:52.184Z,59.78
2018-07-30T06:27:52.217Z,59.82
2018-07-30T06:28:52.214Z,60.02
2018-07-30T06:29:52.242Z,59.86
2018-07-30T06:30:52.461Z,59.87
2018-07-30T06:31:52.248Z,60.12
2018-07-30T06:32:52.207Z,60.34
2018-07-30T06:33:52.214Z,60.1
2018-07-30T06:34:52.281Z,60.03
2018-07-30T06:35:52.195Z,59.76
2018-07-30T06:36:52.209Z,60.06
2018-07-30T06:37:52.201Z,59.89
2018-07-30T06:38:52.249Z,59.72
2018-07-30T06:39:52.233Z,59.55
2018-07-30T06:40:52.208Z,59.63
2018-07-30T06:41:52.337Z,59.86
2018-07-30T06:42:52.539Z,59.85
2018-07-30T06:43:52.207Z,59.5
2018-07-30T06:44:53.621Z,59.4
2018-07-30T06:45:52.446Z,59.21
2018-07-30T06:46:52.215Z,59.29
2018-07-30T06:47:52.498Z,59
2018-07-30T06:48:52.241Z,58.92
2018-07-30T06:49:52.272Z,58.81
2018-07-30T06:50:52.236Z,58.82
2018-07-30T06:51:52.268Z,58.65
2018-07-30T06:52:52.271Z,58.58
2018-07-30T06:53:52.227Z,58.9
2018-07-30T06:54:52.297Z,58.67
2018-07-30T06:55:52.578Z,58.35
2018-07-30T06:56:52.259Z,58.39
2018-07-30T06:57:52.239Z,58.45
2018-07-30T06:58:52.298Z,58.45
2018-07-30T06:59:52.232Z,58.28
2018-07-30T07:00:52.245Z,58.16
2018-07-30T07:01:52.369Z,57.87
2018-07-30T07:02:52.280Z,57.87
2018-07-30T07:03:52.253Z,58.1
2018-07-30T07:04:52.270Z,58.32
2018-07-30T07:05:52.544Z,57.89
2018-07-30T07:06:52.420Z,58.18
2018-07-30T07:07:52.237Z,58.09
2018-07-30T07:08:52.244Z,57.73
2018-07-30T07:09:52.439Z,57.65
2018-07-30T07:10:52.287Z,57.69
2018-07-30T07:11:52.367Z,57.92
2018-07-30T07:12:52.324Z,57.65
2018-07-30T07:13:52.280Z,57.54
2018-07-30T07:14:52.407Z,57.72
2018-07-30T07:15:52.238Z,58.23
2018-07-30T07:16:52.381Z,57.24
2018-07-30T07:17:52.316Z,57
2018-07-30T07:18:52.353Z,56.87
2018-07-30T07:19:52.245Z,57.08
2018-07-30T07:20:52.292Z,57.15
2018-07-30T07:21:52.465Z,56.72
2018-07-30T07:22:52.339Z,56.46
2018-07-30T07:23:52.348Z,56.29
2018-07-30T07:24:52.265Z,56.3
2018-07-30T07:25:52.449Z,56.34
2018-07-30T07:26:52.302Z,56.37
2018-07-30T07:27:52.330Z,56.3
2018-07-30T07:28:52.262Z,55.96
2018-07-30T07:29:52.274Z,55.78
2018-07-30T07:30:52.306Z,55.6
2018-07-30T07:31:52.308Z,55.88
2018-07-30T07:32:52.341Z,55.99
2018-07-30T07:33:52.317Z,55.54
2018-07-30T07:34:52.711Z,55.59
2018-07-30T07:35:52.291Z,55.61
2018-07-30T07:36:52.791Z,55.53
2018-07-30T07:37:52.287Z,55.52
2018-07-30T07:38:52.292Z,55.98
2018-07-30T07:39:52.304Z,55.99
2018-07-30T07:40:52.317Z,55.41
2018-07-30T07:41:52.310Z,55.31
2018-07-30T07:42:52.315Z,54.85
2018-07-30T07:43:52.744Z,54.65
2018-07-30T07:44:52.327Z,54.91
2018-07-30T07:45:52.307Z,54.41
2018-07-30T07:46:52.285Z,54.37
2018-07-30T07:47:52.548Z,54.27
2018-07-30T07:48:52.327Z,54.03
2018-07-30T07:49:52.307Z,53.92
2018-07-30T07:50:52.609Z,53.98
2018-07-30T07:51:52.349Z,54.42
2018-07-30T07:52:52.294Z,54.1
2018-07-30T07:53:52.290Z,53.99
2018-07-30T07:54:52.307Z,53.72
2018-07-30T07:55:52.310Z,53.21
2018-07-30T07:56:52.304Z,53.61
2018-07-30T07:57:52.295Z,53.8
2018-07-30T07:58:52.312Z,53.5
2018-07-30T07:59:52.311Z,53.87
2018-07-30T08:00:52.325Z,54
2018-07-30T08:01:52.457Z,54.09
2018-07-30T08:02:52.320Z,53.86
2018-07-30T08:03:52.478Z,53.78
2018-07-30T08:04:52.318Z,52.86
2018-07-30T08:05:52.324Z,52.58
2018-07-30T08:06:52.409Z,52.31
2018-07-30T08:07:52.327Z,52.52
2018-07-30T08:08:57.952Z,52.56
2018-07-30T08:09:52.446Z,52.02
2018-07-30T08:10:52.419Z,52.42
2018-07-30T08:11:52.332Z,50.72
2018-07-30T08:12:52.897Z,50.57
2018-07-30T08:13:52.398Z,51.14
2018-07-30T08:14:52.360Z,51.56
2018-07-30T08:15:52.343Z,51.79
2018-07-30T08:16:52.615Z,51.6
2018-07-30T08:17:52.355Z,51.75
2018-07-30T08:18:52.333Z,52.08
2018-07-30T08:19:52.374Z,51.89
2018-07-30T08:20:52.410Z,52.15
2018-07-30T08:21:52.385Z,51.93
2018-07-30T08:22:52.452Z,52.03
2018-07-30T08:23:52.442Z,52.1
2018-07-30T08:24:52.457Z,51.4
2018-07-30T08:25:52.371Z,51.65
2018-07-30T08:26:52.337Z,51.94
2018-07-30T08:27:52.319Z,52.53
2018-07-30T08:28:52.351Z,51.62
2018-07-30T08:29:52.638Z,50.73
2018-07-30T08:30:52.348Z,50.38
2018-07-30T08:31:52.354Z,50.66
2018-07-30T08:32:52.671Z,49.65
2018-07-30T08:33:52.529Z,49.7
2018-07-30T08:34:52.643Z,50
2018-07-30T08:35:52.467Z,50.06
2018-07-30T08:36:52.361Z,50.02
2018-07-30T08:37:52.396Z,49.72
2018-07-30T08:38:52.363Z,49.06
2018-07-30T08:39:52.569Z,49.02
2018-07-30T08:40:52.483Z,48.27
2018-07-30T08:41:52.427Z,48.32
2018-07-30T08:42:52.471Z,48.56
2018-07-30T08:43:52.591Z,48.86
2018-07-30T08:44:52.600Z,48.94
2018-07-30T08:45:52.472Z,49.22
2018-07-30T08:46:52.619Z,49.11
2018-07-30T08:47:52.619Z,48.95
2018-07-30T08:48:52.677Z,49.19
2018-07-30T08:49:52.383Z,48.93
2018-07-30T08:50:52.502Z,48.28
2018-07-30T08:51:52.458Z,48.56
2018-07-30T08:52:52.648Z,48.9
2018-07-30T08:53:52.561Z,47.72
2018-07-30T08:54:52.570Z,48.27
2018-07-30T08:55:52.389Z,48.52
2018-07-30T08:56:52.621Z,48.38
2018-07-30T08:57:52.378Z,48.64
2018-07-30T08:58:52.496Z,48.1
2018-07-30T08:59:52.378Z,48.15
2018-07-30T09:00:52.416Z,49.05
2018-07-30T09:01:52.406Z,48.87
2018-07-30T09:02:52.401Z,48.35
2018-07-30T09:03:52.385Z,47.94
2018-07-30T09:04:52.376Z,47.82
2018-07-30T09:05:52.394Z,47.64
2018-07-30T09:06:52.441Z,47.48
2018-07-30T09:07:52.405Z,47.03
2018-07-30T09:08:52.568Z,46.83
2018-07-30T09:09:52.409Z,47.07
2018-07-30T09:10:52.389Z,46.69
2018-07-30T09:11:52.391Z,46.81
2018-07-30T09:12:52.686Z,46.92
2018-07-30T09:13:52.492Z,46.56
2018-07-30T09:14:52.538Z,46.71
2018-07-30T09:15:52.436Z,46.85
2018-07-30T09:16:52.668Z,46.85
2018-07-30T09:17:52.557Z,46.29
2018-07-30T09:18:52.630Z,46.04
2018-07-30T09:19:52.411Z,45.81
2018-07-30T09:20:52.411Z,45.33
2018-07-30T09:21:52.407Z,44.95
2018-07-30T09:22:52.452Z,45.12
2018-07-30T09:23:52.517Z,45.3
2018-07-30T09:24:52.486Z,45.33
2018-07-30T09:25:52.556Z,45.02
2018-07-30T09:26:52.437Z,44.61
2018-07-30T09:27:52.541Z,44.88
2018-07-30T09:28:52.493Z,45.52
2018-07-30T09:29:52.631Z,44.73
2018-07-30T09:30:52.610Z,44.77
2018-07-30T09:31:52.455Z,45.12
2018-07-30T09:32:52.536Z,44.64
2018-07-30T09:33:52.462Z,44.19
2018-07-30T09:34:52.441Z,44.53
2018-07-30T09:35:52.484Z,43.98
2018-07-30T09:36:52.465Z,44.59
2018-07-30T09:37:52.465Z,44.69
2018-07-30T09:38:52.503Z,44.05
2018-07-30T09:39:52.569Z,43.86
2018-07-30T09:40:52.431Z,43.69
2018-07-30T09:41:52.479Z,44.15
2018-07-30T09:42:52.469Z,44.06
2018-07-30T09:43:52.594Z,43.01
2018-07-30T09:44:52.484Z,42.95
2018-07-30T09:45:52.486Z,43.29
2018-07-30T09:46:52.454Z,42.78
2018-07-30T09:47:52.480Z,42.97
2018-07-30T09:48:52.737Z,43.09
2018-07-30T09:49:52.512Z,43.46
2018-07-30T09:50:52.462Z,42.17
2018-07-30T09:51:52.456Z,42.22
2018-07-30T09:52:52.763Z,42.21
2018-07-30T09:53:52.547Z,42.42
2018-07-30T09:54:52.779Z,42.13
2018-07-30T09:55:52.508Z,41.94
2018-07-30T09:56:52.480Z,42.25
2018-07-30T09:57:52.448Z,41.96
2018-07-30T09:58:52.500Z,41.6
2018-07-30T09:59:52.460Z,41.58
2018-07-30T10:00:52.659Z,41.71
2018-07-30T10:01:52.575Z,41.45
2018-07-30T10:02:52.465Z,42.18
2018-07-30T10:03:52.478Z,42.13
2018-07-30T10:04:52.461Z,41.26
2018-07-30T10:05:52.477Z,41.73
2018-07-30T10:06:52.496Z,41.44
2018-07-30T10:07:52.484Z,40.85
2018-07-30T10:08:52.478Z,40.87
2018-07-30T10:09:52.484Z,41.09
2018-07-30T10:10:52.483Z,40.03
2018-07-30T10:11:52.522Z,40.43
2018-07-30T10:12:52.497Z,40.18
2018-07-30T10:13:52.513Z,39.47
2018-07-30T10:14:52.605Z,39.01
2018-07-30T10:15:52.502Z,38.69
2018-07-30T10:16:52.475Z,39.47
2018-07-30T10:17:52.488Z,39.44
2018-07-30T10:18:52.508Z,39.4
2018-07-30T10:19:52.493Z,38.45
2018-07-30T10:20:52.504Z,37.75
2018-07-30T10:21:52.486Z,37.49
2018-07-30T10:22:52.536Z,37.61
2018-07-30T10:23:52.500Z,37.41
2018-07-30T10:24:52.676Z,37.11
2018-07-30T10:25:52.498Z,36.58
2018-07-30T10:26:52.707Z,37.39
2018-07-30T10:27:52.596Z,36.27
2018-07-30T10:28:52.714Z,37.49
2018-07-30T10:29:52.713Z,37.15
2018-07-30T10:30:52.949Z,37.41
2018-07-30T10:31:52.764Z,37.54
2018-07-30T10:32:52.757Z,38.13
2018-07-30T10:33:52.678Z,36.45
2018-07-30T10:34:52.756Z,37.29
2018-07-30T10:35:52.794Z,36.96
2018-07-30T10:36:52.612Z,36.55
2018-07-30T10:37:52.602Z,36.63
2018-07-30T10:38:53.595Z,36.44
2018-07-30T10:39:52.710Z,35.91
2018-07-30T10:40:52.506Z,35.56
2018-07-30T10:41:53.140Z,35.24
2018-07-30T10:42:52.709Z,34.72
2018-07-30T10:43:52.531Z,35.11
2018-07-30T10:44:52.556Z,35.23
2018-07-30T10:45:52.609Z,35.72
2018-07-30T10:46:52.617Z,35.85
2018-07-30T10:47:52.630Z,35.65
2018-07-30T10:48:52.632Z,34.81
2018-07-30T10:49:52.547Z,34.64
2018-07-30T10:50:52.642Z,34.93
2018-07-30T10:51:52.579Z,35.05
2018-07-30T10:52:52.589Z,34.25
2018-07-30T10:53:52.545Z,34.8
2018-07-30T10:54:52.686Z,34.73
2018-07-30T10:55:52.984Z,33.96
2018-07-30T10:56:52.582Z,32.61
2018-07-30T10:57:52.599Z,33.29
2018-07-30T10:58:52.574Z,33.31
2018-07-30T10:59:52.526Z,32.99
2018-07-30T11:00:52.680Z,33.69
2018-07-30T11:01:52.585Z,32.86
2018-07-30T11:02:52.667Z,32.78
2018-07-30T11:03:52.539Z,32.85
2018-07-30T11:04:52.953Z,33.15
2018-07-30T11:05:52.612Z,33.28
2018-07-30T11:06:52.641Z,33.08
2018-07-30T11:07:52.962Z,32.83
2018-07-30T11:08:52.553Z,32.88
2018-07-30T11:09:52.598Z,32.87
2018-07-30T11:10:52.697Z,33.28
2018-07-30T11:11:52.893Z,32.36
2018-07-30T11:12:52.793Z,31.59
2018-07-30T11:13:52.893Z,31.88
2018-07-30T11:14:52.771Z,32.05
2018-07-30T11:15:52.565Z,32.1
2018-07-30T11:16:52.718Z,31.72
2018-07-30T11:17:52.628Z,32.16
2018-07-30T11:18:52.641Z,33.01
2018-07-30T11:19:53.676Z,32.66
2018-07-30T11:20:52.750Z,31.91
2018-07-30T11:21:52.553Z,32.97
2018-07-30T11:22:52.656Z,32.8
2018-07-30T11:23:52.667Z,32
2018-07-30T11:24:52.575Z,31.61
2018-07-30T11:25:52.589Z,30.77
2018-07-30T11:26:52.583Z,31.65
2018-07-30T11:27:52.592Z,31.8
2018-07-30T11:28:52.595Z,31.59
2018-07-30T11:29:52.597Z,32.37
2018-07-30T11:30:52.714Z,31.42
2018-07-30T11:31:52.565Z,29.81
2018-07-30T11:32:52.570Z,30.24
2018-07-30T11:33:52.741Z,30.85
2018-07-30T11:34:52.578Z,30.27
2018-07-30T11:35:52.638Z,30.76
2018-07-30T11:36:52.565Z,30.82
2018-07-30T11:37:52.864Z,31.81
2018-07-30T11:38:52.610Z,30.36
2018-07-30T11:39:52.656Z,30.99
2018-07-30T11:40:52.623Z,31.59
2018-07-30T11:41:52.679Z,31.01
2018-07-30T11:42:52.683Z,29.86
2018-07-30T11:43:52.594Z,30.19
2018-07-30T11:44:52.599Z,29.7
2018-07-30T11:45:52.696Z,30.39
2018-07-30T11:46:52.651Z,30.77
2018-07-30T11:47:52.713Z,31.01
2018-07-30T11:48:52.738Z,29.97
2018-07-30T11:49:52.768Z,29.06
2018-07-30T11:50:52.610Z,29.1
2018-07-30T11:51:52.871Z,29.02
2018-07-30T11:52:52.668Z,29.6
2018-07-30T11:53:53.104Z,29.6
2018-07-30T11:54:52.609Z,29.07
2018-07-30T11:55:52.629Z,28.87
2018-07-30T11:56:52.607Z,28.6
2018-07-30T11:57:52.617Z,28.43
2018-07-30T11:58:52.612Z,29.66
2018-07-30T11:59:52.651Z,28.86
2018-07-30T12:00:52.717Z,28.69
2018-07-30T12:01:52.664Z,27.98
2018-07-30T12:02:52.697Z,27.93
2018-07-30T12:03:52.737Z,27.76
2018-07-30T12:04:52.763Z,27.74
2018-07-30T12:05:52.676Z,27.67
2018-07-30T12:06:52.618Z,28.65
2018-07-30T12:07:52.641Z,28.15
2018-07-30T12:08:52.752Z,27.32
2018-07-30T12:09:52.648Z,26.8
2018-07-30T12:10:52.685Z,26.96
2018-07-30T12:11:52.613Z,27.12
2018-07-30T12:12:52.633Z,27.26
2018-07-30T12:13:52.663Z,28.25
2018-07-30T12:14:52.639Z,27.22
2018-07-30T12:15:52.701Z,28.1
2018-07-30T12:16:52.710Z,27.53
2018-07-30T12:17:52.672Z,27.08
2018-07-30T12:18:52.842Z,26.78
2018-07-30T12:19:52.708Z,27.58
2018-07-30T12:20:52.706Z,27.35
2018-07-30T12:21:52.749Z,27.42
2018-07-30T12:22:52.843Z,27.38
2018-07-30T12:23:52.780Z,27.39
2018-07-30T12:24:52.659Z,27.08
2018-07-30T12:25:52.823Z,27.18
2018-07-30T12:26:52.675Z,26.51
2018-07-30T12:27:52.653Z,27.25
2018-07-30T12:28:52.841Z,27.33
2018-07-30T12:29:52.694Z,26.46
2018-07-30T12:30:52.921Z,27.19
2018-07-30T12:31:52.721Z,26.93
2018-07-30T12:32:53.868Z,28.25
2018-07-30T12:33:52.659Z,28.43
2018-07-30T12:34:52.665Z,27.54
2018-07-30T12:35:52.679Z,27.03
2018-07-30T12:36:52.714Z,28.1
2018-07-30T12:37:52.668Z,26.96
2018-07-30T12:38:52.690Z,26.7
2018-07-30T12:39:52.677Z,27.58
2018-07-30T12:40:52.854Z,27.9
2018-07-30T12:41:52.918Z,28.04
2018-07-30T12:42:52.908Z,26.18
2018-07-30T12:43:52.675Z,26.21
2018-07-30T12:44:52.703Z,26.04
2018-07-30T12:45:52.833Z,25.94
2018-07-30T12:46:52.708Z,26.34
2018-07-30T12:47:52.686Z,25.9
2018-07-30T12:48:52.694Z,26.04
2018-07-30T12:49:52.691Z,25.89
2018-07-30T12:50:52.949Z,26.15
2018-07-30T12:51:52.776Z,25.84
2018-07-30T12:52:52.923Z,26.1
2018-07-30T12:53:52.795Z,25.84
2018-07-30T12:54:52.745Z,26.4
2018-07-30T12:55:52.895Z,27.12